sensor_id;sensor_type;location;lat;lon;timestamp;P1;durP1;ratioP1;P2;durP2;ratioP2
428;SDS011;201;48.758;9.290;2022-10-16T00:02:19;2.73;;;1.80;;
428;SDS011;201;48.758;9.290;2022-10-16T00:04:44;1.93;;;1.40;;
428;SDS011;201;48.758;9.290;2022-10-16T00:07:10;2.17;;;1.70;;
428;SDS011;201;48.758;9.290;2022-10-16T00:09:35;2.57;;;1.80;;
428;SDS011;201;48.758;9.290;2022-10-16T00:12:01;3.23;;;1.50;;
428;SDS011;201;48.758;9.290;2022-10-16T00:14:28;3.00;;;2.03;;
428;SDS011;201;48.758;9.290;2022-10-16T00:16:54;2.13;;;1.73;;
428;SDS011;201;48.758;9.290;2022-10-16T00:19:19;3.77;;;1.50;;
428;SDS011;201;48.758;9.290;2022-10-16T00:21:45;1.90;;;1.60;;
428;SDS011;201;48.758;9.290;2022-10-16T00:24:10;3.37;;;2.30;;
428;SDS011;201;48.758;9.290;2022-10-16T00:26:36;1.83;;;1.73;;
428;SDS011;201;48.758;9.290;2022-10-16T00:29:03;2.30;;;1.70;;
428;SDS011;201;48.758;9.290;2022-10-16T00:31:29;3.67;;;2.20;;
428;SDS011;201;48.758;9.290;2022-10-16T00:33:55;4.03;;;1.93;;
428;SDS011;201;48.758;9.290;2022-10-16T00:36:21;3.27;;;1.97;;
428;SDS011;201;48.758;9.290;2022-10-16T00:38:52;4.40;;;1.87;;
428;SDS011;201;48.758;9.290;2022-10-16T00:41:19;2.43;;;1.60;;
428;SDS011;201;48.758;9.290;2022-10-16T00:46:20;3.17;;;1.90;;
428;SDS011;201;48.758;9.290;2022-10-16T00:48:56;3.70;;;2.10;;
428;SDS011;201;48.758;9.290;2022-10-16T00:51:29;2.57;;;1.70;;
428;SDS011;201;48.758;9.290;2022-10-16T00:53:58;2.13;;;1.70;;
428;SDS011;201;48.758;9.290;2022-10-16T00:56:25;1.80;;;1.60;;
428;SDS011;201;48.758;9.290;2022-10-16T00:58:51;2.13;;;1.97;;
428;SDS011;201;48.758;9.290;2022-10-16T01:01:17;2.70;;;2.17;;
428;SDS011;201;48.758;9.290;2022-10-16T01:03:42;3.23;;;1.80;;
428;SDS011;201;48.758;9.290;2022-10-16T01:06:18;2.80;;;1.80;;
428;SDS011;201;48.758;9.290;2022-10-16T01:14:32;3.60;;;2.23;;
428;SDS011;201;48.758;9.290;2022-10-16T01:17:12;3.87;;;2.00;;
428;SDS011;201;48.758;9.290;2022-10-16T01:19:50;1.60;;;1.60;;
428;SDS011;201;48.758;9.290;2022-10-16T01:22:28;2.87;;;2.67;;
428;SDS011;201;48.758;9.290;2022-10-16T01:25:20;2.20;;;2.00;;
428;SDS011;201;48.758;9.290;2022-10-16T01:27:54;3.50;;;2.00;;
428;SDS011;201;48.758;9.290;2022-10-16T01:30:26;3.13;;;1.93;;
428;SDS011;201;48.758;9.290;2022-10-16T01:33:01;2.27;;;1.87;;
428;SDS011;201;48.758;9.290;2022-10-16T01:35:37;6.70;;;1.93;;
428;SDS011;201;48.758;9.290;2022-10-16T01:38:14;3.43;;;1.83;;
428;SDS011;201;48.758;9.290;2022-10-16T01:40:49;2.10;;;1.73;;
428;SDS011;201;48.758;9.290;2022-10-16T01:43:22;4.63;;;2.50;;
428;SDS011;201;48.758;9.290;2022-10-16T01:45:55;7.60;;;2.40;;
428;SDS011;201;48.758;9.290;2022-10-16T01:48:22;5.10;;;2.20;;
428;SDS011;201;48.758;9.290;2022-10-16T01:50:52;3.10;;;2.30;;
428;SDS011;201;48.758;9.290;2022-10-16T01:53:21;2.77;;;2.30;;
428;SDS011;201;48.758;9.290;2022-10-16T01:55:48;5.53;;;2.40;;
428;SDS011;201;48.758;9.290;2022-10-16T01:58:15;2.80;;;2.50;;
428;SDS011;201;48.758;9.290;2022-10-16T02:00:42;4.33;;;2.50;;
428;SDS011;201;48.758;9.290;2022-10-16T02:03:12;4.13;;;3.00;;
428;SDS011;201;48.758;9.290;2022-10-16T02:05:41;6.80;;;3.03;;
428;SDS011;201;48.758;9.290;2022-10-16T02:08:15;3.50;;;2.37;;
428;SDS011;201;48.758;9.290;2022-10-16T02:10:41;3.03;;;2.83;;
428;SDS011;201;48.758;9.290;2022-10-16T02:16:06;4.80;;;2.90;;
428;SDS011;201;48.758;9.290;2022-10-16T02:18:34;10.33;;;2.67;;
428;SDS011;201;48.758;9.290;2022-10-16T02:21:06;7.23;;;2.67;;
428;SDS011;201;48.758;9.290;2022-10-16T02:23:48;4.00;;;1.83;;
428;SDS011;201;48.758;9.290;2022-10-16T02:26:17;4.00;;;2.23;;
428;SDS011;201;48.758;9.290;2022-10-16T02:28:53;4.03;;;2.30;;
428;SDS011;201;48.758;9.290;2022-10-16T02:31:25;2.97;;;2.10;;
428;SDS011;201;48.758;9.290;2022-10-16T02:33:54;2.00;;;1.90;;
428;SDS011;201;48.758;9.290;2022-10-16T02:36:23;5.07;;;2.13;;
428;SDS011;201;48.758;9.290;2022-10-16T02:38:51;4.60;;;2.30;;
428;SDS011;201;48.758;9.290;2022-10-16T02:41:17;5.20;;;2.13;;
428;SDS011;201;48.758;9.290;2022-10-16T02:43:45;2.53;;;2.27;;
428;SDS011;201;48.758;9.290;2022-10-16T02:46:10;4.50;;;2.30;;
428;SDS011;201;48.758;9.290;2022-10-16T02:48:36;2.90;;;2.20;;
428;SDS011;201;48.758;9.290;2022-10-16T02:51:02;4.87;;;2.70;;
428;SDS011;201;48.758;9.290;2022-10-16T02:53:27;6.33;;;2.43;;
428;SDS011;201;48.758;9.290;2022-10-16T02:55:53;5.70;;;2.70;;
428;SDS011;201;48.758;9.290;2022-10-16T02:58:18;3.10;;;2.43;;
428;SDS011;201;48.758;9.290;2022-10-16T03:00:44;15.83;;;3.00;;
428;SDS011;201;48.758;9.290;2022-10-16T03:03:09;3.50;;;2.00;;
428;SDS011;201;48.758;9.290;2022-10-16T03:05:35;3.47;;;2.23;;
428;SDS011;201;48.758;9.290;2022-10-16T03:08:00;3.43;;;2.60;;
428;SDS011;201;48.758;9.290;2022-10-16T03:10:26;2.73;;;1.80;;
428;SDS011;201;48.758;9.290;2022-10-16T03:12:52;5.43;;;2.03;;
428;SDS011;201;48.758;9.290;2022-10-16T03:15:17;3.90;;;1.90;;
428;SDS011;201;48.758;9.290;2022-10-16T03:17:43;3.53;;;2.00;;
428;SDS011;201;48.758;9.290;2022-10-16T03:20:09;4.77;;;2.10;;
428;SDS011;201;48.758;9.290;2022-10-16T03:22:34;2.43;;;2.03;;
428;SDS011;201;48.758;9.290;2022-10-16T03:25:00;3.07;;;2.00;;
428;SDS011;201;48.758;9.290;2022-10-16T03:27:25;4.20;;;2.50;;
428;SDS011;201;48.758;9.290;2022-10-16T03:29:51;3.53;;;2.00;;
428;SDS011;201;48.758;9.290;2022-10-16T03:32:16;9.20;;;2.40;;
428;SDS011;201;48.758;9.290;2022-10-16T03:34:43;4.17;;;2.70;;
428;SDS011;201;48.758;9.290;2022-10-16T03:37:08;2.83;;;1.70;;
428;SDS011;201;48.758;9.290;2022-10-16T03:39:34;1.73;;;1.70;;
428;SDS011;201;48.758;9.290;2022-10-16T03:41:59;4.40;;;1.70;;
428;SDS011;201;48.758;9.290;2022-10-16T03:44:25;2.50;;;1.40;;
428;SDS011;201;48.758;9.290;2022-10-16T03:46:50;5.40;;;1.90;;
428;SDS011;201;48.758;9.290;2022-10-16T03:49:16;1.50;;;1.30;;
428;SDS011;201;48.758;9.290;2022-10-16T03:51:41;1.23;;;1.13;;
428;SDS011;201;48.758;9.290;2022-10-16T03:54:07;3.37;;;1.87;;
428;SDS011;201;48.758;9.290;2022-10-16T03:56:34;3.80;;;1.87;;
428;SDS011;201;48.758;9.290;2022-10-16T03:58:59;3.30;;;1.67;;
428;SDS011;201;48.758;9.290;2022-10-16T04:01:25;2.00;;;1.67;;
428;SDS011;201;48.758;9.290;2022-10-16T04:03:50;2.17;;;1.93;;
428;SDS011;201;48.758;9.290;2022-10-16T04:06:16;4.13;;;1.47;;
428;SDS011;201;48.758;9.290;2022-10-16T04:08:44;1.90;;;1.77;;
428;SDS011;201;48.758;9.290;2022-10-16T04:11:10;3.00;;;1.93;;
428;SDS011;201;48.758;9.290;2022-10-16T04:13:36;2.67;;;2.00;;
428;SDS011;201;48.758;9.290;2022-10-16T04:16:01;2.80;;;1.90;;
428;SDS011;201;48.758;9.290;2022-10-16T04:18:27;5.13;;;2.73;;
428;SDS011;201;48.758;9.290;2022-10-16T04:20:54;5.10;;;1.80;;
428;SDS011;201;48.758;9.290;2022-10-16T04:23:19;4.33;;;2.27;;
428;SDS011;201;48.758;9.290;2022-10-16T04:25:45;3.43;;;2.20;;
428;SDS011;201;48.758;9.290;2022-10-16T04:28:11;2.60;;;2.00;;
428;SDS011;201;48.758;9.290;2022-10-16T04:30:39;5.20;;;2.30;;
428;SDS011;201;48.758;9.290;2022-10-16T04:33:05;3.50;;;2.00;;
428;SDS011;201;48.758;9.290;2022-10-16T04:35:30;5.73;;;2.07;;
428;SDS011;201;48.758;9.290;2022-10-16T04:37:59;6.10;;;1.97;;
428;SDS011;201;48.758;9.290;2022-10-16T04:40:24;3.93;;;1.80;;
428;SDS011;201;48.758;9.290;2022-10-16T04:42:50;2.60;;;1.77;;
428;SDS011;201;48.758;9.290;2022-10-16T04:45:15;3.00;;;1.60;;
428;SDS011;201;48.758;9.290;2022-10-16T04:47:41;5.37;;;1.83;;
428;SDS011;201;48.758;9.290;2022-10-16T04:50:07;2.13;;;1.90;;
428;SDS011;201;48.758;9.290;2022-10-16T04:52:33;5.20;;;1.80;;
428;SDS011;201;48.758;9.290;2022-10-16T04:54:59;2.00;;;1.80;;
428;SDS011;201;48.758;9.290;2022-10-16T04:57:27;1.90;;;1.73;;
428;SDS011;201;48.758;9.290;2022-10-16T04:59:53;2.00;;;1.70;;
428;SDS011;201;48.758;9.290;2022-10-16T05:02:19;2.67;;;1.80;;
428;SDS011;201;48.758;9.290;2022-10-16T05:04:45;4.00;;;2.00;;
428;SDS011;201;48.758;9.290;2022-10-16T05:07:10;3.50;;;1.80;;
428;SDS011;201;48.758;9.290;2022-10-16T05:09:36;5.07;;;2.20;;
428;SDS011;201;48.758;9.290;2022-10-16T05:12:02;2.33;;;2.10;;
428;SDS011;201;48.758;9.290;2022-10-16T05:14:28;1.80;;;1.70;;
428;SDS011;201;48.758;9.290;2022-10-16T05:16:54;1.70;;;1.40;;
428;SDS011;201;48.758;9.290;2022-10-16T05:19:19;1.90;;;1.50;;
428;SDS011;201;48.758;9.290;2022-10-16T05:21:45;1.63;;;1.60;;
428;SDS011;201;48.758;9.290;2022-10-16T05:24:10;1.57;;;1.40;;
428;SDS011;201;48.758;9.290;2022-10-16T05:26:36;3.90;;;1.60;;
428;SDS011;201;48.758;9.290;2022-10-16T05:29:02;2.40;;;1.40;;
428;SDS011;201;48.758;9.290;2022-10-16T05:31:27;5.20;;;1.70;;
428;SDS011;201;48.758;9.290;2022-10-16T05:33:57;2.33;;;1.80;;
428;SDS011;201;48.758;9.290;2022-10-16T05:36:24;3.40;;;1.80;;
428;SDS011;201;48.758;9.290;2022-10-16T05:38:50;3.60;;;1.90;;
428;SDS011;201;48.758;9.290;2022-10-16T05:41:16;2.00;;;1.73;;
428;SDS011;201;48.758;9.290;2022-10-16T05:43:46;2.10;;;1.70;;
428;SDS011;201;48.758;9.290;2022-10-16T05:46:12;4.40;;;2.37;;
428;SDS011;201;48.758;9.290;2022-10-16T05:48:37;4.13;;;1.87;;
428;SDS011;201;48.758;9.290;2022-10-16T05:51:04;1.97;;;1.70;;
428;SDS011;201;48.758;9.290;2022-10-16T05:53:35;7.60;;;2.00;;
428;SDS011;201;48.758;9.290;2022-10-16T05:56:01;2.83;;;1.53;;
428;SDS011;201;48.758;9.290;2022-10-16T05:58:28;2.13;;;1.67;;
428;SDS011;201;48.758;9.290;2022-10-16T06:00:56;2.07;;;1.40;;
428;SDS011;201;48.758;9.290;2022-10-16T06:03:25;2.07;;;1.67;;
428;SDS011;201;48.758;9.290;2022-10-16T06:05:51;3.00;;;1.60;;
428;SDS011;201;48.758;9.290;2022-10-16T06:08:17;4.73;;;1.67;;
428;SDS011;201;48.758;9.290;2022-10-16T06:10:44;3.70;;;1.73;;
428;SDS011;201;48.758;9.290;2022-10-16T06:13:11;1.57;;;1.40;;
428;SDS011;201;48.758;9.290;2022-10-16T06:15:37;4.43;;;1.53;;
428;SDS011;201;48.758;9.290;2022-10-16T06:18:04;1.77;;;1.60;;
428;SDS011;201;48.758;9.290;2022-10-16T06:20:30;2.10;;;1.63;;
428;SDS011;201;48.758;9.290;2022-10-16T06:22:56;1.43;;;1.40;;
428;SDS011;201;48.758;9.290;2022-10-16T06:25:22;2.23;;;1.90;;
428;SDS011;201;48.758;9.290;2022-10-16T06:27:47;2.10;;;1.43;;
428;SDS011;201;48.758;9.290;2022-10-16T06:30:13;3.33;;;1.27;;
428;SDS011;201;48.758;9.290;2022-10-16T06:32:39;1.97;;;1.67;;
428;SDS011;201;48.758;9.290;2022-10-16T06:35:04;2.10;;;1.53;;
428;SDS011;201;48.758;9.290;2022-10-16T06:37:30;2.33;;;1.50;;
428;SDS011;201;48.758;9.290;2022-10-16T06:39:55;1.90;;;1.70;;
428;SDS011;201;48.758;9.290;2022-10-16T06:42:21;1.80;;;1.60;;
428;SDS011;201;48.758;9.290;2022-10-16T06:44:46;1.90;;;1.60;;
428;SDS011;201;48.758;9.290;2022-10-16T06:47:12;1.83;;;1.73;;
428;SDS011;201;48.758;9.290;2022-10-16T06:49:37;2.07;;;1.40;;
428;SDS011;201;48.758;9.290;2022-10-16T06:52:03;1.90;;;1.40;;
428;SDS011;201;48.758;9.290;2022-10-16T06:54:29;2.07;;;1.40;;
428;SDS011;201;48.758;9.290;2022-10-16T06:56:55;2.50;;;1.77;;
428;SDS011;201;48.758;9.290;2022-10-16T06:59:21;3.00;;;1.43;;
428;SDS011;201;48.758;9.290;2022-10-16T07:01:46;1.80;;;1.20;;
428;SDS011;201;48.758;9.290;2022-10-16T07:04:13;2.60;;;1.83;;
428;SDS011;201;48.758;9.290;2022-10-16T07:06:38;2.30;;;1.20;;
428;SDS011;201;48.758;9.290;2022-10-16T07:09:05;2.30;;;1.70;;
428;SDS011;201;48.758;9.290;2022-10-16T07:11:33;5.03;;;1.70;;
428;SDS011;201;48.758;9.290;2022-10-16T07:13:59;9.43;;;2.10;;
428;SDS011;201;48.758;9.290;2022-10-16T07:16:26;4.30;;;2.07;;
428;SDS011;201;48.758;9.290;2022-10-16T07:18:54;2.63;;;2.50;;
428;SDS011;201;48.758;9.290;2022-10-16T07:21:23;2.77;;;2.07;;
428;SDS011;201;48.758;9.290;2022-10-16T07:23:53;5.43;;;2.20;;
428;SDS011;201;48.758;9.290;2022-10-16T07:26:21;3.20;;;2.00;;
428;SDS011;201;48.758;9.290;2022-10-16T07:28:47;5.07;;;2.00;;
428;SDS011;201;48.758;9.290;2022-10-16T07:31:13;4.07;;;1.87;;
428;SDS011;201;48.758;9.290;2022-10-16T07:33:40;8.83;;;2.23;;
428;SDS011;201;48.758;9.290;2022-10-16T07:36:08;2.23;;;1.60;;
428;SDS011;201;48.758;9.290;2022-10-16T07:38:34;2.40;;;1.90;;
428;SDS011;201;48.758;9.290;2022-10-16T07:41:00;2.10;;;1.87;;
428;SDS011;201;48.758;9.290;2022-10-16T07:43:28;3.20;;;1.60;;
428;SDS011;201;48.758;9.290;2022-10-16T07:45:54;1.50;;;1.50;;
428;SDS011;201;48.758;9.290;2022-10-16T07:48:20;2.47;;;1.73;;
428;SDS011;201;48.758;9.290;2022-10-16T07:50:46;4.03;;;1.60;;
428;SDS011;201;48.758;9.290;2022-10-16T07:53:12;3.63;;;1.97;;
428;SDS011;201;48.758;9.290;2022-10-16T07:55:38;3.53;;;1.70;;
428;SDS011;201;48.758;9.290;2022-10-16T07:58:04;3.60;;;1.87;;
428;SDS011;201;48.758;9.290;2022-10-16T08:00:30;1.90;;;1.63;;
428;SDS011;201;48.758;9.290;2022-10-16T08:02:56;4.60;;;2.33;;
428;SDS011;201;48.758;9.290;2022-10-16T08:05:25;3.20;;;2.40;;
428;SDS011;201;48.758;9.290;2022-10-16T08:07:52;4.03;;;1.83;;
428;SDS011;201;48.758;9.290;2022-10-16T08:10:18;2.63;;;2.17;;
428;SDS011;201;48.758;9.290;2022-10-16T08:12:46;4.40;;;2.00;;
428;SDS011;201;48.758;9.290;2022-10-16T08:15:11;2.73;;;2.10;;
428;SDS011;201;48.758;9.290;2022-10-16T08:17:37;1.73;;;1.63;;
428;SDS011;201;48.758;9.290;2022-10-16T08:20:03;9.53;;;2.67;;
428;SDS011;201;48.758;9.290;2022-10-16T08:22:29;4.60;;;2.40;;
428;SDS011;201;48.758;9.290;2022-10-16T08:24:55;4.00;;;1.83;;
428;SDS011;201;48.758;9.290;2022-10-16T08:27:20;9.40;;;3.30;;
428;SDS011;201;48.758;9.290;2022-10-16T08:29:46;5.20;;;2.43;;
428;SDS011;201;48.758;9.290;2022-10-16T08:32:13;4.13;;;1.93;;
428;SDS011;201;48.758;9.290;2022-10-16T08:34:38;4.30;;;2.30;;
428;SDS011;201;48.758;9.290;2022-10-16T08:37:04;3.03;;;1.90;;
428;SDS011;201;48.758;9.290;2022-10-16T08:39:32;4.33;;;1.70;;
428;SDS011;201;48.758;9.290;2022-10-16T08:42:16;2.63;;;1.53;;
428;SDS011;201;48.758;9.290;2022-10-16T08:45:15;4.07;;;1.80;;
428;SDS011;201;48.758;9.290;2022-10-16T08:48:15;4.10;;;1.90;;
428;SDS011;201;48.758;9.290;2022-10-16T08:51:13;2.40;;;1.90;;
428;SDS011;201;48.758;9.290;2022-10-16T08:53:52;2.43;;;1.90;;
428;SDS011;201;48.758;9.290;2022-10-16T08:56:21;4.00;;;1.83;;
428;SDS011;201;48.758;9.290;2022-10-16T08:58:47;2.03;;;1.60;;
428;SDS011;201;48.758;9.290;2022-10-16T09:01:14;5.50;;;1.93;;
428;SDS011;201;48.758;9.290;2022-10-16T09:09:38;2.20;;;1.50;;
428;SDS011;201;48.758;9.290;2022-10-16T09:12:12;2.30;;;1.70;;
428;SDS011;201;48.758;9.290;2022-10-16T09:17:26;2.70;;;1.30;;
428;SDS011;201;48.758;9.290;2022-10-16T09:25:29;4.00;;;1.50;;
428;SDS011;201;48.758;9.290;2022-10-16T09:27:57;5.13;;;1.70;;
428;SDS011;201;48.758;9.290;2022-10-16T09:30:23;2.07;;;1.30;;
428;SDS011;201;48.758;9.290;2022-10-16T09:32:54;3.30;;;1.60;;
428;SDS011;201;48.758;9.290;2022-10-16T09:35:24;2.33;;;1.90;;
428;SDS011;201;48.758;9.290;2022-10-16T09:37:56;1.73;;;1.40;;
428;SDS011;201;48.758;9.290;2022-10-16T09:40:26;1.47;;;1.47;;
428;SDS011;201;48.758;9.290;2022-10-16T09:42:56;3.10;;;1.50;;
428;SDS011;201;48.758;9.290;2022-10-16T09:45:27;2.00;;;1.37;;
428;SDS011;201;48.758;9.290;2022-10-16T09:47:53;1.63;;;1.60;;
428;SDS011;201;48.758;9.290;2022-10-16T09:50:22;1.50;;;1.17;;
428;SDS011;201;48.758;9.290;2022-10-16T09:53:05;4.57;;;1.20;;
428;SDS011;201;48.758;9.290;2022-10-16T09:55:48;2.47;;;1.47;;
428;SDS011;201;48.758;9.290;2022-10-16T09:58:15;2.17;;;1.50;;
428;SDS011;201;48.758;9.290;2022-10-16T10:00:41;1.73;;;1.00;;
428;SDS011;201;48.758;9.290;2022-10-16T10:03:13;2.90;;;1.47;;
428;SDS011;201;48.758;9.290;2022-10-16T10:05:50;1.63;;;1.23;;
428;SDS011;201;48.758;9.290;2022-10-16T10:08:16;2.73;;;1.40;;
428;SDS011;201;48.758;9.290;2022-10-16T10:10:43;3.67;;;1.27;;
428;SDS011;201;48.758;9.290;2022-10-16T10:13:17;2.20;;;1.10;;
428;SDS011;201;48.758;9.290;2022-10-16T10:15:45;4.20;;;2.40;;
428;SDS011;201;48.758;9.290;2022-10-16T10:18:20;2.00;;;1.40;;
428;SDS011;201;48.758;9.290;2022-10-16T10:21:01;1.70;;;1.50;;
428;SDS011;201;48.758;9.290;2022-10-16T10:23:28;3.67;;;1.83;;
428;SDS011;201;48.758;9.290;2022-10-16T10:28:42;1.40;;;1.13;;
428;SDS011;201;48.758;9.290;2022-10-16T10:38:50;2.80;;;1.30;;
428;SDS011;201;48.758;9.290;2022-10-16T10:50:14;2.10;;;1.37;;
428;SDS011;201;48.758;9.290;2022-10-16T11:01:30;1.40;;;1.33;;
428;SDS011;201;48.758;9.290;2022-10-16T11:10:13;1.47;;;1.07;;
428;SDS011;201;48.758;9.290;2022-10-16T11:12:47;1.73;;;1.30;;
428;SDS011;201;48.758;9.290;2022-10-16T11:15:25;2.20;;;1.10;;
428;SDS011;201;48.758;9.290;2022-10-16T11:20:46;2.43;;;1.50;;
428;SDS011;201;48.758;9.290;2022-10-16T11:26:18;1.43;;;1.40;;
428;SDS011;201;48.758;9.290;2022-10-16T11:28:58;1.97;;;0.90;;
428;SDS011;201;48.758;9.290;2022-10-16T11:31:37;1.50;;;1.20;;
428;SDS011;201;48.758;9.290;2022-10-16T11:34:09;4.23;;;1.47;;
428;SDS011;201;48.758;9.290;2022-10-16T11:37:38;2.40;;;1.03;;
428;SDS011;201;48.758;9.290;2022-10-16T11:39:49;1.33;;;0.90;;
428;SDS011;201;48.758;9.290;2022-10-16T11:42:31;1.47;;;1.20;;
428;SDS011;201;48.758;9.290;2022-10-16T11:47:43;1.00;;;0.90;;
428;SDS011;201;48.758;9.290;2022-10-16T11:53:03;2.00;;;1.00;;
428;SDS011;201;48.758;9.290;2022-10-16T11:55:39;3.40;;;1.70;;
428;SDS011;201;48.758;9.290;2022-10-16T11:58:07;2.50;;;1.50;;
428;SDS011;201;48.758;9.290;2022-10-16T12:06:44;2.73;;;1.20;;
428;SDS011;201;48.758;9.290;2022-10-16T12:11:50;2.70;;;1.67;;
428;SDS011;201;48.758;9.290;2022-10-16T12:14:20;3.87;;;2.00;;
428;SDS011;201;48.758;9.290;2022-10-16T12:16:59;2.20;;;1.23;;
428;SDS011;201;48.758;9.290;2022-10-16T12:19:28;0.90;;;0.80;;
428;SDS011;201;48.758;9.290;2022-10-16T12:21:55;5.03;;;1.20;;
428;SDS011;201;48.758;9.290;2022-10-16T12:26:54;3.50;;;1.40;;
428;SDS011;201;48.758;9.290;2022-10-16T12:29:23;1.10;;;1.00;;
428;SDS011;201;48.758;9.290;2022-10-16T12:31:53;2.53;;;1.00;;
428;SDS011;201;48.758;9.290;2022-10-16T12:34:27;7.03;;;1.90;;
428;SDS011;201;48.758;9.290;2022-10-16T12:37:06;2.57;;;1.80;;
428;SDS011;201;48.758;9.290;2022-10-16T12:39:39;3.43;;;2.10;;
428;SDS011;201;48.758;9.290;2022-10-16T12:42:19;3.03;;;1.40;;
428;SDS011;201;48.758;9.290;2022-10-16T12:44:47;3.53;;;1.60;;
428;SDS011;201;48.758;9.290;2022-10-16T12:49:57;2.83;;;1.80;;
428;SDS011;201;48.758;9.290;2022-10-16T12:52:27;2.67;;;1.93;;
428;SDS011;201;48.758;9.290;2022-10-16T12:55:02;1.63;;;1.30;;
428;SDS011;201;48.758;9.290;2022-10-16T12:58:31;1.87;;;1.10;;
428;SDS011;201;48.758;9.290;2022-10-16T13:00:48;1.93;;;1.40;;
428;SDS011;201;48.758;9.290;2022-10-16T13:09:30;2.60;;;1.13;;
428;SDS011;201;48.758;9.290;2022-10-16T13:15:23;1.20;;;1.00;;
428;SDS011;201;48.758;9.290;2022-10-16T13:18:19;4.63;;;1.70;;
428;SDS011;201;48.758;9.290;2022-10-16T13:26:44;2.57;;;1.40;;
428;SDS011;201;48.758;9.290;2022-10-16T13:29:17;2.40;;;1.63;;
428;SDS011;201;48.758;9.290;2022-10-16T13:31:44;2.27;;;1.40;;
428;SDS011;201;48.758;9.290;2022-10-16T13:34:17;4.83;;;3.57;;
428;SDS011;201;48.758;9.290;2022-10-16T13:36:50;1.77;;;1.63;;
428;SDS011;201;48.758;9.290;2022-10-16T13:39:27;1.67;;;1.53;;
428;SDS011;201;48.758;9.290;2022-10-16T13:42:04;2.40;;;1.33;;
428;SDS011;201;48.758;9.290;2022-10-16T13:44:35;3.80;;;3.10;;
428;SDS011;201;48.758;9.290;2022-10-16T13:47:10;1.37;;;1.20;;
428;SDS011;201;48.758;9.290;2022-10-16T13:49:41;3.50;;;1.80;;
428;SDS011;201;48.758;9.290;2022-10-16T13:52:15;3.70;;;2.80;;
428;SDS011;201;48.758;9.290;2022-10-16T13:54:43;1.70;;;1.70;;
428;SDS011;201;48.758;9.290;2022-10-16T13:57:12;2.70;;;1.60;;
428;SDS011;201;48.758;9.290;2022-10-16T13:59:39;1.30;;;1.30;;
428;SDS011;201;48.758;9.290;2022-10-16T14:02:14;1.37;;;1.30;;
428;SDS011;201;48.758;9.290;2022-10-16T14:04:51;2.47;;;1.40;;
428;SDS011;201;48.758;9.290;2022-10-16T14:07:24;10.10;;;4.33;;
428;SDS011;201;48.758;9.290;2022-10-16T14:10:07;2.10;;;1.57;;
428;SDS011;201;48.758;9.290;2022-10-16T14:12:53;4.00;;;1.77;;
428;SDS011;201;48.758;9.290;2022-10-16T14:15:20;1.40;;;1.40;;
428;SDS011;201;48.758;9.290;2022-10-16T14:17:47;2.90;;;2.07;;
428;SDS011;201;48.758;9.290;2022-10-16T14:20:15;2.03;;;1.70;;
428;SDS011;201;48.758;9.290;2022-10-16T14:22:41;4.33;;;1.20;;
428;SDS011;201;48.758;9.290;2022-10-16T14:27:45;4.57;;;1.20;;
428;SDS011;201;48.758;9.290;2022-10-16T14:30:26;1.87;;;1.80;;
428;SDS011;201;48.758;9.290;2022-10-16T14:32:59;4.10;;;1.50;;
428;SDS011;201;48.758;9.290;2022-10-16T14:35:36;5.33;;;1.43;;
428;SDS011;201;48.758;9.290;2022-10-16T14:38:04;8.90;;;2.33;;
428;SDS011;201;48.758;9.290;2022-10-16T14:40:32;3.50;;;1.77;;
428;SDS011;201;48.758;9.290;2022-10-16T14:42:59;1.20;;;1.20;;
428;SDS011;201;48.758;9.290;2022-10-16T14:45:27;5.33;;;1.87;;
428;SDS011;201;48.758;9.290;2022-10-16T14:47:56;6.00;;;3.13;;
428;SDS011;201;48.758;9.290;2022-10-16T14:50:23;5.03;;;2.60;;
428;SDS011;201;48.758;9.290;2022-10-16T14:52:49;5.10;;;2.00;;
428;SDS011;201;48.758;9.290;2022-10-16T14:55:15;4.73;;;1.77;;
428;SDS011;201;48.758;9.290;2022-10-16T14:57:42;4.87;;;2.83;;
428;SDS011;201;48.758;9.290;2022-10-16T15:00:22;2.80;;;1.43;;
428;SDS011;201;48.758;9.290;2022-10-16T15:02:49;2.30;;;1.70;;
428;SDS011;201;48.758;9.290;2022-10-16T15:05:16;2.63;;;2.00;;
428;SDS011;201;48.758;9.290;2022-10-16T15:07:51;6.37;;;2.27;;
428;SDS011;201;48.758;9.290;2022-10-16T15:10:18;1.93;;;1.83;;
428;SDS011;201;48.758;9.290;2022-10-16T15:12:46;2.20;;;1.93;;
428;SDS011;201;48.758;9.290;2022-10-16T15:15:16;7.70;;;1.77;;
428;SDS011;201;48.758;9.290;2022-10-16T15:17:46;1.60;;;1.47;;
428;SDS011;201;48.758;9.290;2022-10-16T15:20:12;7.37;;;1.67;;
428;SDS011;201;48.758;9.290;2022-10-16T15:22:38;3.37;;;1.63;;
428;SDS011;201;48.758;9.290;2022-10-16T15:25:25;1.73;;;1.57;;
428;SDS011;201;48.758;9.290;2022-10-16T15:27:52;2.23;;;1.80;;
428;SDS011;201;48.758;9.290;2022-10-16T15:30:18;1.87;;;1.30;;
428;SDS011;201;48.758;9.290;2022-10-16T15:32:43;2.83;;;1.40;;
428;SDS011;201;48.758;9.290;2022-10-16T15:35:09;3.33;;;1.60;;
428;SDS011;201;48.758;9.290;2022-10-16T15:37:34;3.27;;;1.80;;
428;SDS011;201;48.758;9.290;2022-10-16T15:40:00;5.40;;;1.60;;
428;SDS011;201;48.758;9.290;2022-10-16T15:42:25;2.87;;;2.00;;
428;SDS011;201;48.758;9.290;2022-10-16T15:44:51;2.87;;;1.70;;
428;SDS011;201;48.758;9.290;2022-10-16T15:47:16;2.07;;;1.93;;
428;SDS011;201;48.758;9.290;2022-10-16T15:49:42;3.53;;;1.93;;
428;SDS011;201;48.758;9.290;2022-10-16T15:52:08;4.73;;;2.17;;
428;SDS011;201;48.758;9.290;2022-10-16T15:54:33;1.93;;;1.83;;
428;SDS011;201;48.758;9.290;2022-10-16T15:56:59;3.47;;;1.73;;
428;SDS011;201;48.758;9.290;2022-10-16T15:59:24;2.53;;;2.00;;
428;SDS011;201;48.758;9.290;2022-10-16T16:01:50;3.83;;;1.77;;
428;SDS011;201;48.758;9.290;2022-10-16T16:04:15;2.33;;;2.13;;
428;SDS011;201;48.758;9.290;2022-10-16T16:06:41;8.63;;;2.50;;
428;SDS011;201;48.758;9.290;2022-10-16T16:09:09;9.43;;;5.67;;
428;SDS011;201;48.758;9.290;2022-10-16T16:11:36;4.73;;;3.17;;
428;SDS011;201;48.758;9.290;2022-10-16T16:14:03;4.77;;;3.30;;
428;SDS011;201;48.758;9.290;2022-10-16T16:16:32;11.63;;;3.80;;
428;SDS011;201;48.758;9.290;2022-10-16T16:19:03;4.30;;;3.17;;
428;SDS011;201;48.758;9.290;2022-10-16T16:21:31;5.80;;;3.10;;
428;SDS011;201;48.758;9.290;2022-10-16T16:23:56;9.93;;;6.70;;
428;SDS011;201;48.758;9.290;2022-10-16T16:26:23;8.67;;;7.60;;
428;SDS011;201;48.758;9.290;2022-10-16T16:28:57;10.77;;;8.10;;
428;SDS011;201;48.758;9.290;2022-10-16T16:31:26;8.20;;;6.53;;
428;SDS011;201;48.758;9.290;2022-10-16T16:33:53;7.40;;;6.30;;
428;SDS011;201;48.758;9.290;2022-10-16T16:36:19;9.20;;;8.73;;
428;SDS011;201;48.758;9.290;2022-10-16T16:38:45;9.90;;;5.30;;
428;SDS011;201;48.758;9.290;2022-10-16T16:41:14;10.67;;;8.00;;
428;SDS011;201;48.758;9.290;2022-10-16T16:43:44;4.20;;;3.70;;
428;SDS011;201;48.758;9.290;2022-10-16T16:46:12;4.10;;;3.17;;
428;SDS011;201;48.758;9.290;2022-10-16T16:48:38;4.77;;;3.13;;
428;SDS011;201;48.758;9.290;2022-10-16T16:51:10;9.43;;;3.60;;
428;SDS011;201;48.758;9.290;2022-10-16T16:53:40;5.57;;;3.13;;
428;SDS011;201;48.758;9.290;2022-10-16T16:56:06;3.90;;;2.80;;
428;SDS011;201;48.758;9.290;2022-10-16T16:58:32;3.60;;;2.57;;
428;SDS011;201;48.758;9.290;2022-10-16T17:00:58;5.40;;;2.73;;
428;SDS011;201;48.758;9.290;2022-10-16T17:03:28;8.77;;;2.80;;
428;SDS011;201;48.758;9.290;2022-10-16T17:06:01;7.53;;;3.60;;
428;SDS011;201;48.758;9.290;2022-10-16T17:08:32;4.13;;;3.90;;
428;SDS011;201;48.758;9.290;2022-10-16T17:10:59;4.80;;;3.10;;
428;SDS011;201;48.758;9.290;2022-10-16T17:13:25;13.17;;;8.23;;
428;SDS011;201;48.758;9.290;2022-10-16T17:15:52;30.07;;;17.40;;
428;SDS011;201;48.758;9.290;2022-10-16T17:18:18;22.93;;;18.30;;
428;SDS011;201;48.758;9.290;2022-10-16T17:20:45;17.60;;;11.83;;
428;SDS011;201;48.758;9.290;2022-10-16T17:23:12;13.63;;;10.07;;
428;SDS011;201;48.758;9.290;2022-10-16T17:25:41;12.67;;;9.37;;
428;SDS011;201;48.758;9.290;2022-10-16T17:28:07;13.13;;;9.13;;
428;SDS011;201;48.758;9.290;2022-10-16T17:30:36;7.97;;;6.23;;
428;SDS011;201;48.758;9.290;2022-10-16T17:33:02;5.87;;;3.50;;
428;SDS011;201;48.758;9.290;2022-10-16T17:35:28;3.90;;;3.50;;
428;SDS011;201;48.758;9.290;2022-10-16T17:37:54;3.07;;;2.70;;
428;SDS011;201;48.758;9.290;2022-10-16T17:40:19;4.40;;;2.60;;